Time;durP1;ratioP1;P1;durP2;ratioP2;P2;SDS_P1;SDS_P2;PMS_P1;PMS_P2;Temp;Humidity;BMP_temperature;BMP_pressure;BME280_temperature;BME280_humidity;BME280_pressure;Samples;Min_cycle;Max_cycle;Signal;HPM_P1;HPM_P2
2022/04/24 00:00:16;;;;;;;5.90;4.10;;;6.20;90.50;;;;;;5100943;27;20640;-82
2022/04/24 00:02:43;;;;;;;4.67;4.17;;;6.20;90.70;;;;;;5098890;28;20239;-81
2022/04/24 00:05:10;;;;;;;5.57;4.13;;;6.20;91.00;;;;;;5104380;27;20225;-83
2022/04/24 00:07:37;;;;;;;5.90;4.33;;;6.10;91.30;;;;;;5101995;28;20652;-82
2022/04/24 00:10:06;;;;;;;7.90;4.63;;;6.10;91.70;;;;;;5103556;28;20223;-83
2022/04/24 00:12:32;;;;;;;10.07;4.20;;;6.10;91.80;;;;;;5101313;28;20231;-83
2022/04/24 00:14:59;;;;;;;5.80;4.30;;;6.00;91.70;;;;;;5100558;28;20213;-82
2022/04/24 00:17:26;;;;;;;6.00;4.47;;;6.00;91.90;;;;;;5100680;28;20300;-82
2022/04/24 00:19:52;;;;;;;4.90;4.20;;;6.00;92.10;;;;;;5105288;28;20232;-81
2022/04/24 00:22:20;;;;;;;6.23;4.10;;;6.00;92.10;;;;;;5099674;27;20246;-82
2022/04/24 00:24:47;;;;;;;8.43;4.37;;;5.90;92.40;;;;;;5103297;28;20225;-82
2022/04/24 00:27:15;;;;;;;6.00;4.27;;;5.90;92.50;;;;;;5099608;28;20223;-82
2022/04/24 00:29:42;;;;;;;6.07;4.13;;;5.90;92.70;;;;;;5113183;27;20232;-82
2022/04/24 00:32:10;;;;;;;6.17;4.10;;;5.90;92.60;;;;;;5103467;28;20223;-81
2022/04/24 00:34:37;;;;;;;5.73;4.07;;;5.90;93.20;;;;;;5100171;28;20230;-82
2022/04/24 00:37:04;;;;;;;5.40;3.97;;;5.90;93.00;;;;;;5099200;28;20782;-81
2022/04/24 00:39:32;;;;;;;4.73;3.80;;;5.80;93.30;;;;;;5095359;28;20237;-82
2022/04/24 00:41:59;;;;;;;5.77;4.00;;;5.80;93.40;;;;;;5099479;28;20297;-81
2022/04/24 00:44:28;;;;;;;4.63;3.40;;;5.80;93.70;;;;;;5101552;28;20232;-82
2022/04/24 00:47:23;;;;;;;9.23;4.20;;;5.70;93.80;;;;;;5103542;28;20684;-81
2022/04/24 00:49:50;;;;;;;5.07;3.67;;;5.70;94.10;;;;;;5105651;28;20266;-81
2022/04/24 00:52:18;;;;;;;4.63;3.57;;;5.70;93.70;;;;;;5106523;28;20235;-84
2022/04/24 00:54:45;;;;;;;6.50;4.00;;;5.70;94.00;;;;;;5106254;28;20243;-82
2022/04/24 00:57:13;;;;;;;5.80;3.77;;;5.60;94.30;;;;;;5103744;28;20238;-85
2022/04/24 00:59:41;;;;;;;5.27;4.10;;;5.60;94.30;;;;;;5102619;28;20231;-82
2022/04/24 01:02:10;;;;;;;5.90;3.87;;;5.60;94.40;;;;;;5102914;28;20231;-81
2022/04/24 01:04:38;;;;;;;6.23;3.83;;;5.60;94.40;;;;;;5103011;28;20282;-82
2022/04/24 01:07:05;;;;;;;5.40;3.73;;;5.50;94.50;;;;;;5103583;28;20236;-81
2022/04/24 01:09:34;;;;;;;7.03;3.83;;;5.50;94.30;;;;;;5101700;27;20300;-81
2022/04/24 01:12:01;;;;;;;5.53;3.80;;;5.50;94.70;;;;;;5098007;28;20314;-82
2022/04/24 01:14:30;;;;;;;5.67;4.27;;;5.50;95.10;;;;;;5095775;28;20251;-81
2022/04/24 01:16:59;;;;;;;4.87;3.73;;;5.40;94.90;;;;;;5103145;28;20617;-81
2022/04/24 01:19:26;;;;;;;5.60;4.03;;;5.40;95.00;;;;;;5104535;27;20248;-82
2022/04/24 01:21:55;;;;;;;4.83;3.60;;;5.40;95.10;;;;;;5101764;28;20240;-81
2022/04/24 01:24:24;;;;;;;7.67;3.90;;;5.40;95.20;;;;;;5095321;28;20253;-81
2022/04/24 01:26:51;;;;;;;5.37;3.63;;;5.40;95.00;;;;;;5101829;28;20249;-81
2022/04/24 01:29:19;;;;;;;6.43;4.10;;;5.40;95.10;;;;;;5104152;28;20237;-81
2022/04/24 01:31:48;;;;;;;6.10;3.83;;;5.40;95.30;;;;;;5102335;28;20491;-80
2022/04/24 01:34:15;;;;;;;4.87;4.13;;;5.30;95.50;;;;;;5097330;28;20239;-80
2022/04/24 01:36:43;;;;;;;5.00;3.57;;;5.30;95.40;;;;;;5103284;28;20633;-80
2022/04/24 01:39:11;;;;;;;5.13;3.80;;;5.30;95.50;;;;;;5101478;28;20228;-80
2022/04/24 01:41:38;;;;;;;7.37;4.07;;;5.20;95.30;;;;;;5098546;28;20278;-81
2022/04/24 01:44:05;;;;;;;4.70;3.53;;;5.20;95.30;;;;;;5100549;28;20227;-82
2022/04/24 01:46:32;;;;;;;5.37;3.93;;;5.20;95.90;;;;;;5104660;28;20313;-82
2022/04/24 01:48:59;;;;;;;8.07;3.67;;;5.20;95.70;;;;;;5103311;28;20565;-82
2022/04/24 01:51:26;;;;;;;6.33;4.13;;;5.20;95.40;;;;;;5102698;28;20297;-82
2022/04/24 01:53:52;;;;;;;5.90;3.70;;;5.10;95.70;;;;;;5099233;28;20750;-82
2022/04/24 01:56:20;;;;;;;7.90;3.70;;;5.10;95.80;;;;;;5090236;28;20321;-83
2022/04/24 01:58:47;;;;;;;6.60;3.63;;;5.10;95.80;;;;;;5091315;28;20313;-83
2022/04/24 02:01:14;;;;;;;6.27;3.60;;;5.10;95.70;;;;;;5095377;28;20222;-83
2022/04/24 02:03:41;;;;;;;5.43;3.30;;;5.00;95.80;;;;;;5098031;28;20315;-82
2022/04/24 02:06:08;;;;;;;9.20;3.97;;;5.00;95.90;;;;;;5099640;28;20225;-82
2022/04/24 02:08:36;;;;;;;8.90;3.70;;;5.00;96.00;;;;;;5102274;28;20305;-82
2022/04/24 02:11:03;;;;;;;6.03;3.60;;;5.00;96.00;;;;;;5103283;27;20225;-82
2022/04/24 02:13:33;;;;;;;4.43;2.97;;;5.00;96.20;;;;;;5103223;28;20314;-83
2022/04/24 02:15:59;;;;;;;4.50;3.27;;;5.00;96.30;;;;;;5106932;28;20252;-82
2022/04/24 02:18:26;;;;;;;5.63;3.50;;;5.00;96.00;;;;;;5106376;28;20841;-82
2022/04/24 02:20:53;;;;;;;6.77;3.23;;;5.00;96.10;;;;;;5107716;27;20926;-83
2022/04/24 02:23:19;;;;;;;7.57;3.40;;;4.90;96.20;;;;;;5102561;28;20234;-82
2022/04/24 02:25:46;;;;;;;8.20;3.97;;;4.90;96.30;;;;;;5102060;28;20235;-83
2022/04/24 02:28:13;;;;;;;5.43;3.23;;;4.90;96.40;;;;;;5089176;28;20232;-83
2022/04/24 02:30:41;;;;;;;3.50;3.00;;;4.90;96.40;;;;;;5117905;27;20225;-83
2022/04/24 02:33:09;;;;;;;5.97;3.30;;;4.90;96.50;;;;;;5103626;28;20328;-82
2022/04/24 02:35:35;;;;;;;8.40;3.70;;;4.90;96.70;;;;;;5107808;28;20254;-83
2022/04/24 02:38:02;;;;;;;4.67;3.60;;;4.90;96.90;;;;;;5104131;28;20302;-83
2022/04/24 02:40:29;;;;;;;5.43;3.13;;;4.90;96.80;;;;;;5105175;28;20697;-83
2022/04/24 02:42:56;;;;;;;9.30;3.73;;;4.80;96.80;;;;;;5101165;28;20224;-83
2022/04/24 02:45:23;;;;;;;6.47;3.87;;;4.80;97.00;;;;;;5103702;27;20254;-81
2022/04/24 02:47:51;;;;;;;6.47;3.50;;;4.80;96.90;;;;;;5108216;28;20224;-82
2022/04/24 02:50:19;;;;;;;7.53;3.80;;;4.80;97.10;;;;;;5110543;27;20744;-82
2022/04/24 02:52:50;;;;;;;6.23;3.83;;;4.80;97.40;;;;;;5107187;28;20218;-81
2022/04/24 02:55:17;;;;;;;6.57;3.57;;;4.70;97.40;;;;;;5103105;28;20230;-82
2022/04/24 02:57:44;;;;;;;4.43;3.53;;;4.70;97.40;;;;;;5107743;28;20230;-82
2022/04/24 03:00:13;;;;;;;5.60;3.40;;;4.70;97.20;;;;;;5104034;28;20237;-81
2022/04/24 03:02:42;;;;;;;7.90;4.00;;;4.80;97.40;;;;;;5098294;28;20227;-82
2022/04/24 03:05:12;;;;;;;5.13;3.80;;;4.70;97.70;;;;;;5104083;28;20221;-81
2022/04/24 03:07:38;;;;;;;9.27;4.03;;;4.70;97.50;;;;;;5104627;28;20982;-81
2022/04/24 03:10:08;;;;;;;7.50;3.97;;;4.70;97.50;;;;;;5095530;28;20308;-82
2022/04/24 03:12:35;;;;;;;7.43;3.87;;;4.70;97.40;;;;;;5103038;28;20228;-82
2022/04/24 03:15:02;;;;;;;6.53;4.07;;;4.60;97.40;;;;;;5106683;28;20714;-81
2022/04/24 03:17:31;;;;;;;6.93;4.10;;;4.60;97.40;;;;;;5102479;27;20243;-81
2022/04/24 03:19:57;;;;;;;7.07;3.90;;;4.60;97.80;;;;;;5101032;28;20227;-81
2022/04/24 03:22:25;;;;;;;4.63;3.60;;;4.60;97.50;;;;;;5100485;28;20232;-81
2022/04/24 03:24:52;;;;;;;4.90;3.70;;;4.60;97.60;;;;;;5100905;28;20233;-81
2022/04/24 03:27:19;;;;;;;7.60;4.00;;;4.60;97.50;;;;;;5097310;28;20230;-81
2022/04/24 03:29:45;;;;;;;5.90;3.80;;;4.60;98.00;;;;;;5101878;28;20227;-82
2022/04/24 03:32:12;;;;;;;6.90;3.50;;;4.50;97.60;;;;;;5099520;28;20308;-81
2022/04/24 03:34:39;;;;;;;5.90;3.87;;;4.50;97.70;;;;;;5099286;28;20689;-81
2022/04/24 03:37:06;;;;;;;5.87;4.07;;;4.50;97.70;;;;;;5103394;28;20225;-83
2022/04/24 03:39:34;;;;;;;7.00;4.10;;;4.50;98.00;;;;;;5096300;28;20874;-82
2022/04/24 03:42:01;;;;;;;6.77;4.00;;;4.50;97.90;;;;;;5093259;28;20285;-82
2022/04/24 03:44:28;;;;;;;10.13;3.77;;;4.40;98.00;;;;;;5117356;27;20237;-82
2022/04/24 03:46:55;;;;;;;7.90;3.97;;;4.40;98.20;;;;;;5104258;28;20320;-82
2022/04/24 03:49:21;;;;;;;5.03;3.90;;;4.30;98.20;;;;;;5106604;27;20294;-82
2022/04/24 03:51:48;;;;;;;5.30;3.70;;;4.40;98.40;;;;;;5102589;28;20238;-81
2022/04/24 03:54:15;;;;;;;7.40;3.77;;;4.30;98.10;;;;;;5106735;28;20235;-81
2022/04/24 03:56:43;;;;;;;8.20;4.00;;;4.20;98.30;;;;;;5101070;28;20238;-81
2022/04/24 03:59:09;;;;;;;6.33;3.67;;;4.30;98.30;;;;;;5098287;27;20248;-82
2022/04/24 04:01:36;;;;;;;7.13;4.00;;;4.20;98.20;;;;;;5105037;28;20390;-81
2022/04/24 04:04:03;;;;;;;4.70;3.23;;;4.20;98.50;;;;;;5101600;28;20225;-81
2022/04/24 04:06:30;;;;;;;5.13;3.43;;;4.20;98.40;;;;;;5098449;27;20311;-81
2022/04/24 04:08:57;;;;;;;6.50;4.10;;;4.20;98.40;;;;;;5101081;28;20596;-82
2022/04/24 04:11:26;;;;;;;9.67;4.30;;;4.20;98.60;;;;;;5105295;27;20315;-82
2022/04/24 04:13:54;;;;;;;8.23;4.30;;;4.20;98.60;;;;;;5102818;28;20237;-82
2022/04/24 04:16:22;;;;;;;8.43;4.33;;;4.20;98.50;;;;;;5094748;28;20225;-82
2022/04/24 04:18:49;;;;;;;6.87;4.30;;;4.20;98.80;;;;;;5096993;28;20279;-82
2022/04/24 04:21:16;;;;;;;6.47;3.90;;;4.20;98.80;;;;;;5095403;28;20218;-81
2022/04/24 04:23:43;;;;;;;8.70;4.20;;;4.20;99.00;;;;;;5096178;28;20233;-82
2022/04/24 04:26:10;;;;;;;8.27;4.03;;;4.20;98.80;;;;;;5100649;27;20440;-81
2022/04/24 04:28:36;;;;;;;5.90;3.60;;;4.20;99.10;;;;;;5104420;28;20230;-83
2022/04/24 04:31:04;;;;;;;6.67;3.90;;;4.20;99.00;;;;;;5099307;28;20251;-81
2022/04/24 04:33:31;;;;;;;8.53;4.13;;;4.20;99.30;;;;;;5101493;27;20235;-80
2022/04/24 04:35:58;;;;;;;6.77;4.50;;;4.30;99.60;;;;;;5099856;28;20229;-81
2022/04/24 04:38:24;;;;;;;9.33;4.40;;;4.30;99.60;;;;;;5102563;28;20229;-81
2022/04/24 04:40:51;;;;;;;5.30;3.67;;;4.30;99.60;;;;;;5102395;27;20221;-81
2022/04/24 04:43:18;;;;;;;7.27;4.30;;;4.40;99.60;;;;;;5101996;28;20332;-81
2022/04/24 04:45:45;;;;;;;6.47;4.20;;;4.50;99.70;;;;;;5103674;28;20251;-81
2022/04/24 04:48:13;;;;;;;8.37;4.17;;;4.50;99.60;;;;;;5103525;27;20226;-81
2022/04/24 04:50:40;;;;;;;6.80;4.40;;;4.60;99.70;;;;;;5103515;27;20251;-81
2022/04/24 04:53:06;;;;;;;6.83;4.13;;;4.70;99.40;;;;;;5102574;27;20989;-81
2022/04/24 04:55:33;;;;;;;7.07;4.37;;;4.70;99.60;;;;;;5099371;27;20887;-81
2022/04/24 04:58:00;;;;;;;6.37;4.10;;;4.80;99.50;;;;;;5101404;27;20234;-80
2022/04/24 05:00:28;;;;;;;8.40;4.57;;;4.80;99.60;;;;;;5104025;27;20226;-81
2022/04/24 05:02:55;;;;;;;11.60;4.80;;;4.90;99.70;;;;;;5093826;28;20229;-81
2022/04/24 05:05:23;;;;;;;7.33;4.47;;;4.90;99.60;;;;;;5104758;27;20225;-80
2022/04/24 05:07:51;;;;;;;9.27;5.00;;;5.00;99.70;;;;;;5099261;28;20683;-81
2022/04/24 05:10:18;;;;;;;10.23;4.50;;;5.10;99.60;;;;;;5104697;28;20235;-81
2022/04/24 05:12:45;;;;;;;8.13;4.80;;;5.10;99.60;;;;;;5099339;28;20260;-81
2022/04/24 05:15:14;;;;;;;9.33;4.80;;;5.10;99.60;;;;;;5101880;27;20233;-82
2022/04/24 05:17:42;;;;;;;6.97;4.20;;;5.20;99.80;;;;;;5102305;28;20267;-80
2022/04/24 05:20:11;;;;;;;7.47;4.80;;;5.20;99.80;;;;;;5103172;28;20232;-81
2022/04/24 05:22:40;;;;;;;7.33;4.70;;;5.30;99.90;;;;;;5103643;28;20242;-79
2022/04/24 05:25:09;;;;;;;8.47;4.60;;;5.30;99.90;;;;;;5100647;28;20290;-81
2022/04/24 05:27:36;;;;;;;11.13;4.93;;;5.30;99.80;;;;;;5103611;28;20243;-80
2022/04/24 05:30:05;;;;;;;8.57;4.40;;;5.40;99.80;;;;;;5103050;28;20232;-82
2022/04/24 05:32:39;;;;;;;5.93;4.10;;;5.50;99.90;;;;;;5091068;27;20230;-80
2022/04/24 05:35:07;;;;;;;10.30;4.17;;;5.50;99.90;;;;;;5101243;28;20239;-81
2022/04/24 05:37:34;;;;;;;6.30;4.20;;;5.60;99.90;;;;;;5097809;28;20222;-80
2022/04/24 05:40:02;;;;;;;10.10;4.37;;;5.60;99.70;;;;;;5097141;28;20323;-80
2022/04/24 05:42:29;;;;;;;8.60;3.97;;;5.70;99.90;;;;;;5104406;28;20310;-79
2022/04/24 05:44:59;;;;;;;7.77;4.40;;;5.70;99.90;;;;;;5102172;28;20228;-80
2022/04/24 05:47:26;;;;;;;8.87;4.67;;;5.80;99.90;;;;;;5096484;28;20724;-79
2022/04/24 05:49:53;;;;;;;9.70;4.37;;;5.90;99.90;;;;;;5104774;28;20757;-78
2022/04/24 05:52:19;;;;;;;8.37;4.73;;;5.90;99.90;;;;;;5102882;28;20304;-79
2022/04/24 05:54:46;;;;;;;8.20;4.60;;;6.00;99.90;;;;;;5101281;28;20679;-81
2022/04/24 05:57:14;;;;;;;7.07;4.30;;;6.10;99.90;;;;;;5103254;27;20230;-82
2022/04/24 05:59:41;;;;;;;8.07;4.30;;;6.20;99.80;;;;;;5104365;28;20652;-80
2022/04/24 06:02:09;;;;;;;6.73;4.30;;;6.20;99.70;;;;;;5100104;28;20720;-84
2022/04/24 06:04:36;;;;;;;6.33;4.10;;;6.30;99.80;;;;;;5105152;28;20221;-81
2022/04/24 06:07:02;;;;;;;8.13;4.60;;;6.30;99.90;;;;;;5101088;28;20618;-84
2022/04/24 06:09:29;;;;;;;6.80;4.47;;;6.40;99.80;;;;;;5100813;28;22070;-80
2022/04/24 06:11:58;;;;;;;8.20;4.00;;;6.50;99.80;;;;;;5103294;28;20220;-82
2022/04/24 06:14:26;;;;;;;7.60;4.40;;;6.60;99.70;;;;;;5106721;27;20229;-81
2022/04/24 06:16:53;;;;;;;7.90;4.20;;;6.70;99.80;;;;;;5103024;28;20570;-82
2022/04/24 06:19:19;;;;;;;9.73;4.47;;;6.90;99.80;;;;;;5102795;28;20324;-83
2022/04/24 06:21:46;;;;;;;7.73;4.37;;;7.10;99.50;;;;;;5123690;27;20225;-82
2022/04/24 06:24:13;;;;;;;8.20;4.20;;;7.30;99.30;;;;;;5103950;28;20237;-83
2022/04/24 06:26:41;;;;;;;6.87;4.10;;;7.40;99.20;;;;;;5105516;28;20229;-84
2022/04/24 06:29:08;;;;;;;5.77;4.00;;;7.60;99.00;;;;;;5108078;28;20291;-81
2022/04/24 06:31:36;;;;;;;5.70;4.23;;;7.90;98.90;;;;;;5104477;28;20301;-80
2022/04/24 06:34:03;;;;;;;7.03;4.23;;;8.10;98.70;;;;;;5103514;28;20232;-82
2022/04/24 06:36:30;;;;;;;5.07;3.60;;;8.30;98.30;;;;;;5099515;27;20586;-82
2022/04/24 06:38:56;;;;;;;6.90;3.60;;;8.50;97.70;;;;;;5102733;28;20637;-81
2022/04/24 06:41:23;;;;;;;6.23;3.87;;;8.70;96.90;;;;;;5105902;27;20224;-81
2022/04/24 06:43:50;;;;;;;5.20;3.60;;;8.70;96.70;;;;;;5102012;28;20326;-80
2022/04/24 06:46:18;;;;;;;6.50;3.70;;;8.80;96.60;;;;;;5104342;28;20608;-84
2022/04/24 06:48:46;;;;;;;5.97;3.57;;;8.80;96.50;;;;;;5106721;28;20221;-86
2022/04/24 06:51:13;;;;;;;8.67;4.37;;;8.80;96.50;;;;;;5107528;28;20303;-85
2022/04/24 06:53:40;;;;;;;4.57;3.20;;;8.80;96.70;;;;;;5103291;28;20339;-86
2022/04/24 06:56:07;;;;;;;4.57;3.53;;;8.90;96.60;;;;;;5111769;28;20767;-85
2022/04/24 06:58:34;;;;;;;8.17;4.03;;;9.00;96.70;;;;;;5104784;28;20225;-86
2022/04/24 07:01:01;;;;;;;4.63;3.77;;;9.10;96.30;;;;;;5099741;27;20232;-85
2022/04/24 07:03:30;;;;;;;6.13;3.43;;;9.20;95.80;;;;;;5113443;28;20229;-85
2022/04/24 07:06:00;;;;;;;6.67;3.30;;;9.30;95.70;;;;;;5113614;28;20218;-85
2022/04/24 07:08:29;;;;;;;7.90;3.70;;;9.30;95.60;;;;;;5122841;27;20257;-85
2022/04/24 07:10:56;;;;;;;5.93;3.30;;;9.30;95.30;;;;;;5110148;28;20459;-86
2022/04/24 07:13:23;;;;;;;5.87;3.70;;;9.30;95.30;;;;;;5108059;28;20284;-86
2022/04/24 07:15:51;;;;;;;7.30;3.30;;;9.40;95.20;;;;;;5110495;28;20256;-85
2022/04/24 07:18:18;;;;;;;5.13;3.03;;;9.50;95.30;;;;;;5101839;28;20768;-86
2022/04/24 07:20:45;;;;;;;4.93;3.37;;;9.60;95.10;;;;;;5101212;28;20253;-83
2022/04/24 07:23:13;;;;;;;6.63;3.57;;;9.70;95.10;;;;;;5103970;28;20236;-85
2022/04/24 07:25:43;;;;;;;6.30;3.30;;;10.00;94.50;;;;;;5101617;28;20309;-84
2022/04/24 07:28:10;;;;;;;6.97;3.43;;;10.20;94.70;;;;;;5107467;28;20257;-83
2022/04/24 07:30:37;;;;;;;5.27;2.93;;;10.50;93.90;;;;;;5103943;28;20226;-81
2022/04/24 07:33:04;;;;;;;4.80;3.07;;;10.80;93.30;;;;;;5105060;28;20217;-82
2022/04/24 07:35:33;;;;;;;4.93;3.00;;;11.10;93.10;;;;;;5104250;27;20237;-82
2022/04/24 07:37:59;;;;;;;5.20;2.90;;;11.50;93.10;;;;;;5105642;28;20249;-82
2022/04/24 07:40:29;;;;;;;5.03;3.33;;;12.00;92.60;;;;;;5112580;28;20279;-80
2022/04/24 07:42:58;;;;;;;5.43;3.30;;;12.40;91.90;;;;;;5109817;28;20315;-81
2022/04/24 07:45:26;;;;;;;5.57;3.23;;;12.80;91.00;;;;;;5107270;28;20589;-82
2022/04/24 07:47:55;;;;;;;4.17;2.83;;;13.30;89.90;;;;;;5105908;28;20913;-81
2022/04/24 07:50:24;;;;;;;6.37;3.67;;;13.70;89.70;;;;;;5103253;28;20222;-81
2022/04/24 07:52:53;;;;;;;7.97;4.07;;;14.00;88.30;;;;;;5105994;28;20631;-81
2022/04/24 07:55:23;;;;;;;5.57;2.73;;;14.30;88.10;;;;;;5106327;27;20222;-80
2022/04/24 07:57:53;;;;;;;4.63;2.93;;;14.70;85.20;;;;;;5102313;28;20224;-80
2022/04/24 08:00:21;;;;;;;4.47;2.97;;;14.90;80.00;;;;;;5110853;28;20255;-79
2022/04/24 08:02:49;;;;;;;6.10;3.07;;;15.00;80.90;;;;;;5106374;28;20248;-80
2022/04/24 08:05:20;;;;;;;4.80;3.07;;;15.10;81.50;;;;;;5103319;27;20316;-80
2022/04/24 08:07:47;;;;;;;4.23;2.73;;;15.20;80.20;;;;;;5107777;28;20320;-80
2022/04/24 08:10:14;;;;;;;4.57;3.17;;;15.20;78.60;;;;;;5106063;27;20228;-80
2022/04/24 08:12:41;;;;;;;7.13;3.03;;;15.20;79.40;;;;;;5104515;27;20653;-81
2022/04/24 08:15:11;;;;;;;3.77;2.47;;;15.30;79.20;;;;;;5098943;28;20228;-80
2022/04/24 08:17:38;;;;;;;3.80;2.67;;;15.40;78.40;;;;;;5101795;27;20662;-80
2022/04/24 08:20:06;;;;;;;5.67;2.70;;;15.50;78.20;;;;;;5107666;28;20279;-81
2022/04/24 08:22:38;;;;;;;5.00;3.40;;;15.60;77.90;;;;;;5113101;27;20231;-81
2022/04/24 08:25:07;;;;;;;4.63;3.00;;;15.70;78.50;;;;;;5113188;28;20259;-80
2022/04/24 08:27:34;;;;;;;5.73;2.67;;;15.90;76.30;;;;;;5111579;28;20233;-79
2022/04/24 08:30:00;;;;;;;5.23;3.03;;;16.10;77.10;;;;;;5111467;28;20289;-79
2022/04/24 08:32:29;;;;;;;4.33;2.50;;;16.20;74.90;;;;;;5111449;28;20252;-82
2022/04/24 08:34:57;;;;;;;4.87;3.07;;;16.30;75.80;;;;;;5097474;28;20767;-81
2022/04/24 08:37:24;;;;;;;6.37;3.23;;;16.30;75.40;;;;;;5101367;28;20244;-79
2022/04/24 08:39:52;;;;;;;3.70;2.87;;;16.40;74.10;;;;;;5104881;27;20237;-80
2022/04/24 08:42:21;;;;;;;4.03;2.90;;;16.30;72.60;;;;;;5100780;28;20273;-81
2022/04/24 08:44:49;;;;;;;5.17;2.63;;;16.30;73.30;;;;;;5101230;28;20287;-81
2022/04/24 08:47:16;;;;;;;10.73;5.50;;;16.20;73.60;;;;;;5099472;28;20761;-80
2022/04/24 08:49:45;;;;;;;6.63;3.90;;;16.20;73.10;;;;;;5095161;27;20225;-81
2022/04/24 08:52:14;;;;;;;4.17;2.43;;;16.10;72.70;;;;;;5095806;28;20669;-80
2022/04/24 08:54:41;;;;;;;6.23;2.83;;;16.00;72.80;;;;;;5094604;27;20229;-81
2022/04/24 08:57:08;;;;;;;7.73;3.70;;;16.00;73.00;;;;;;5095604;28;20314;-81
2022/04/24 08:59:36;;;;;;;4.20;2.60;;;16.10;73.60;;;;;;5095478;28;20221;-81
2022/04/24 09:02:04;;;;;;;10.73;4.40;;;16.20;74.10;;;;;;5093020;27;20343;-81
2022/04/24 09:04:33;;;;;;;3.27;2.67;;;16.40;72.10;;;;;;5094372;28;20233;-81
2022/04/24 09:07:02;;;;;;;8.13;3.57;;;16.50;72.30;;;;;;5097424;28;21469;-81
2022/04/24 09:09:31;;;;;;;5.17;2.77;;;16.50;71.50;;;;;;5093119;27;20732;-81
2022/04/24 09:12:07;;;;;;;9.13;3.97;;;16.50;71.40;;;;;;5094658;28;20625;-81
2022/04/24 09:14:35;;;;;;;5.07;2.90;;;16.50;70.30;;;;;;5092544;28;20228;-81
2022/04/24 09:17:05;;;;;;;4.47;2.50;;;16.50;70.30;;;;;;5096165;27;20662;-82
2022/04/24 09:19:32;;;;;;;4.67;2.27;;;16.50;71.10;;;;;;5093948;28;20239;-81
2022/04/24 09:22:06;;;;;;;5.47;2.90;;;16.50;68.40;;;;;;5096304;28;20229;-80
2022/04/24 09:24:41;;;;;;;5.40;2.60;;;16.60;68.80;;;;;;5096653;28;20233;-80
2022/04/24 09:27:09;;;;;;;4.97;2.27;;;16.60;68.20;;;;;;5096331;28;20305;-81
2022/04/24 09:29:37;;;;;;;5.83;3.40;;;16.70;68.70;;;;;;5104169;28;20222;-81
2022/04/24 09:32:10;;;;;;;5.23;2.87;;;16.50;69.30;;;;;;5092565;28;20703;-82
2022/04/24 09:34:38;;;;;;;6.17;3.10;;;16.50;69.70;;;;;;5098220;28;20408;-81
2022/04/24 09:37:08;;;;;;;3.73;2.60;;;16.40;68.70;;;;;;5105372;28;20251;-82
2022/04/24 09:39:36;;;;;;;4.60;2.37;;;16.50;69.40;;;;;;5096315;28;20343;-81
2022/04/24 09:42:05;;;;;;;5.63;2.50;;;16.50;70.20;;;;;;5095973;28;20248;-78
2022/04/24 09:44:39;;;;;;;4.80;2.47;;;16.70;70.40;;;;;;5100470;28;20651;-83
2022/04/24 09:47:07;;;;;;;4.53;2.60;;;16.90;66.70;;;;;;5103565;28;20286;-81
2022/04/24 09:49:37;;;;;;;5.17;3.00;;;16.90;68.00;;;;;;5094383;28;20218;-81
2022/04/24 09:52:15;;;;;;;5.07;2.60;;;17.10;68.80;;;;;;5100437;27;20233;-81
2022/04/24 09:54:44;;;;;;;13.13;5.50;;;17.10;67.00;;;;;;5100018;28;20274;-80
2022/04/24 09:57:12;;;;;;;5.90;3.10;;;17.10;67.90;;;;;;5100818;28;20301;-83
2022/04/24 09:59:41;;;;;;;4.53;2.73;;;16.90;66.50;;;;;;5102996;28;20723;-83
2022/04/24 10:02:08;;;;;;;6.13;3.23;;;16.70;67.00;;;;;;5099101;28;20278;-81
2022/04/24 10:04:38;;;;;;;7.23;2.40;;;16.40;67.40;;;;;;5104185;28;20860;-82
2022/04/24 10:07:06;;;;;;;4.80;2.70;;;16.00;66.20;;;;;;5101970;28;20233;-83
2022/04/24 10:09:36;;;;;;;4.40;2.40;;;15.60;67.70;;;;;;5097422;27;20258;-82
2022/04/24 10:12:05;;;;;;;6.10;2.60;;;15.30;69.40;;;;;;5101013;28;20227;-82
2022/04/24 10:14:35;;;;;;;4.70;2.47;;;15.20;70.10;;;;;;5090729;28;21121;-84
2022/04/24 10:17:34;;;;;;;5.50;2.70;;;15.30;71.60;;;;;;5099559;28;20556;-82
2022/04/24 10:20:16;;;;;;;4.10;2.50;;;15.50;71.60;;;;;;5106538;28;20228;-82
2022/04/24 10:22:46;;;;;;;5.63;2.53;;;15.80;70.60;;;;;;5094830;28;20589;-81
2022/04/24 10:25:16;;;;;;;3.70;2.63;;;16.00;70.50;;;;;;5096195;28;20236;-83
2022/04/24 10:27:44;;;;;;;3.50;2.40;;;16.20;70.10;;;;;;5096654;28;20281;-82
2022/04/24 10:30:20;;;;;;;5.97;2.73;;;16.30;69.30;;;;;;5099369;28;20237;-84
2022/04/24 10:32:48;;;;;;;5.77;5.13;;;16.20;68.50;;;;;;5097740;28;20233;-85
2022/04/24 10:35:17;;;;;;;5.37;3.07;;;16.00;68.80;;;;;;5118446;27;20264;-84
2022/04/24 10:37:45;;;;;;;5.80;3.00;;;15.80;69.60;;;;;;5108500;27;20248;-83
2022/04/24 10:40:17;;;;;;;5.27;2.77;;;15.60;70.10;;;;;;5104136;27;20699;-82
2022/04/24 10:42:45;;;;;;;4.33;2.80;;;15.50;70.30;;;;;;5112741;28;20236;-83
2022/04/24 10:45:14;;;;;;;4.07;3.07;;;15.40;70.00;;;;;;5103527;27;20971;-83
2022/04/24 10:47:43;;;;;;;4.33;2.80;;;15.20;70.10;;;;;;5110108;28;20744;-82
2022/04/24 10:50:10;;;;;;;3.63;2.70;;;14.80;70.60;;;;;;5105832;28;20227;-83
2022/04/24 10:52:42;;;;;;;4.90;3.20;;;14.60;71.10;;;;;;5102277;28;20225;-84
2022/04/24 10:55:12;;;;;;;5.80;3.00;;;14.30;72.10;;;;;;5103134;28;20226;-80
2022/04/24 10:57:45;;;;;;;5.73;3.23;;;14.00;72.50;;;;;;5108938;28;20252;-81
2022/04/24 11:00:19;;;;;;;4.97;2.90;;;13.80;73.00;;;;;;5108462;28;20221;-80
2022/04/24 11:02:46;;;;;;;6.07;3.10;;;13.50;73.70;;;;;;5115118;28;20228;-80
2022/04/24 11:05:13;;;;;;;5.00;3.10;;;13.30;74.30;;;;;;5108705;28;20281;-80
2022/04/24 11:07:40;;;;;;;7.63;3.40;;;13.10;75.00;;;;;;5112599;27;20265;-81
2022/04/24 11:10:09;;;;;;;6.27;3.20;;;13.00;75.60;;;;;;5105362;28;20233;-81
2022/04/24 11:12:37;;;;;;;6.00;3.20;;;12.80;76.40;;;;;;5108736;27;20252;-81
2022/04/24 11:15:08;;;;;;;5.03;2.77;;;12.60;76.70;;;;;;5105651;28;20229;-82
2022/04/24 11:17:35;;;;;;;5.77;3.37;;;12.50;77.40;;;;;;5103883;28;20254;-82
2022/04/24 11:20:08;;;;;;;7.43;3.87;;;12.50;77.90;;;;;;5103976;28;20378;-82
2022/04/24 11:22:44;;;;;;;8.17;3.60;;;12.60;78.60;;;;;;5104335;27;20227;-81
2022/04/24 11:25:13;;;;;;;5.00;3.20;;;12.70;78.90;;;;;;5103566;27;20917;-80
2022/04/24 11:27:40;;;;;;;6.77;3.07;;;12.70;78.90;;;;;;5100701;28;20226;-81
2022/04/24 11:30:16;;;;;;;5.47;3.50;;;12.80;78.60;;;;;;5104344;28;20222;-81
2022/04/24 11:32:57;;;;;;;8.23;2.90;;;12.80;78.80;;;;;;5098380;27;20229;-81
2022/04/24 11:35:25;;;;;;;6.53;3.40;;;12.80;79.10;;;;;;5099378;27;20225;-81
2022/04/24 11:37:53;;;;;;;6.83;3.53;;;12.80;79.60;;;;;;5104841;28;21976;-80
2022/04/24 11:40:20;;;;;;;9.20;4.17;;;12.80;79.40;;;;;;5104342;28;20220;-82
2022/04/24 11:42:47;;;;;;;6.73;3.93;;;12.80;79.20;;;;;;5110026;28;20644;-80
2022/04/24 11:50:54;;;;;;;5.77;3.67;;;12.80;79.40;;;;;;5101690;28;20234;-81
2022/04/24 11:53:22;;;;;;;8.33;3.47;;;12.70;79.40;;;;;;5106789;28;20975;-80
2022/04/24 11:56:03;;;;;;;7.57;3.70;;;12.60;79.50;;;;;;5104145;28;20229;-80
2022/04/24 11:58:34;;;;;;;8.20;3.93;;;12.60;80.00;;;;;;5103124;28;22318;-80
2022/04/24 12:01:02;;;;;;;8.13;3.33;;;12.60;80.20;;;;;;5102997;28;20228;-81
2022/04/24 12:03:30;;;;;;;6.60;3.60;;;12.60;80.90;;;;;;5105474;28;20813;-81
2022/04/24 12:05:59;;;;;;;6.23;3.63;;;12.70;81.00;;;;;;5106345;28;20230;-81
2022/04/24 12:08:26;;;;;;;9.63;3.87;;;12.80;81.00;;;;;;5109553;28;20232;-81
2022/04/24 12:10:53;;;;;;;5.80;3.47;;;12.90;80.50;;;;;;5110185;28;20235;-81
2022/04/24 12:13:22;;;;;;;8.20;3.57;;;12.80;80.20;;;;;;5110569;28;20257;-81
2022/04/24 12:15:53;;;;;;;7.07;3.83;;;12.80;80.30;;;;;;5111248;28;20729;-81
2022/04/24 12:18:24;;;;;;;7.23;4.27;;;12.90;80.50;;;;;;5106921;28;20227;-81
2022/04/24 12:20:51;;;;;;;9.20;4.17;;;12.80;80.50;;;;;;5112343;28;20224;-81
2022/04/24 12:23:18;;;;;;;5.40;3.53;;;12.80;80.70;;;;;;5108058;28;20317;-81
2022/04/24 12:25:50;;;;;;;7.33;3.47;;;12.80;80.70;;;;;;5110207;28;20227;-81
2022/04/24 12:28:32;;;;;;;6.37;3.90;;;12.90;81.40;;;;;;5111629;27;20234;-81
2022/04/24 12:31:01;;;;;;;6.77;4.07;;;13.00;82.30;;;;;;5105576;28;20334;-81
2022/04/24 12:33:30;;;;;;;5.87;3.97;;;13.30;82.30;;;;;;5107151;27;20257;-81
2022/04/24 12:36:08;;;;;;;7.40;3.70;;;13.60;80.80;;;;;;5104584;28;20243;-81
2022/04/24 12:38:35;;;;;;;7.30;4.20;;;13.80;80.00;;;;;;5108677;28;20729;-81
2022/04/24 12:41:02;;;;;;;7.07;3.80;;;14.00;79.40;;;;;;5098779;28;20236;-81
2022/04/24 12:43:31;;;;;;;8.77;4.17;;;14.10;79.30;;;;;;5105897;28;20235;-80
2022/04/24 12:45:58;;;;;;;8.10;3.97;;;14.10;78.50;;;;;;5105231;28;20826;-81
2022/04/24 12:48:25;;;;;;;8.40;3.87;;;14.00;78.90;;;;;;5100159;27;20784;-81
2022/04/24 12:50:54;;;;;;;8.07;4.10;;;14.10;79.00;;;;;;5101300;27;20270;-81
2022/04/24 12:53:23;;;;;;;12.27;4.20;;;14.00;78.20;;;;;;5105970;28;20229;-81
2022/04/24 12:55:51;;;;;;;6.60;3.90;;;14.00;78.50;;;;;;5101878;28;20241;-81
2022/04/24 12:58:19;;;;;;;10.63;4.37;;;14.00;78.30;;;;;;5104792;28;20225;-81
2022/04/24 13:00:47;;;;;;;8.17;4.00;;;13.80;78.00;;;;;;5109361;28;20849;-82
2022/04/24 13:03:15;;;;;;;8.93;4.40;;;13.70;78.70;;;;;;5105724;28;20237;-83